createdAt,value
2022-10-17T00:00:07.713Z,13.85
2022-10-17T00:03:11.078Z,13.82
2022-10-17T00:06:15.228Z,13.87
2022-10-17T00:09:17.206Z,13.84
2022-10-17T00:12:19.204Z,13.76
2022-10-17T00:15:21.457Z,13.74
2022-10-17T00:18:23.337Z,13.71
2022-10-17T00:21:27.247Z,13.65
2022-10-17T00:24:30.737Z,13.66
2022-10-17T00:27:35.181Z,13.63
2022-10-17T00:30:37.349Z,13.60
2022-10-17T00:33:39.403Z,13.60
2022-10-17T00:36:43.286Z,13.52
2022-10-17T00:39:45.268Z,13.50
2022-10-17T00:42:47.624Z,13.54
2022-10-17T00:45:49.564Z,13.50
2022-10-17T00:48:54.464Z,13.50
2022-10-17T00:52:00.604Z,13.53
2022-10-17T00:55:06.856Z,13.40
2022-10-17T00:58:09.467Z,13.32
2022-10-17T01:01:11.516Z,13.32
2022-10-17T01:04:13.776Z,13.39
2022-10-17T01:07:17.910Z,13.39
2022-10-17T01:13:34.365Z,13.36
2022-10-17T01:16:44.883Z,13.29
2022-10-17T01:20:06.948Z,13.30
2022-10-17T01:23:27.116Z,13.27
2022-10-17T01:26:44.429Z,13.26
2022-10-17T01:29:59.733Z,13.15
2022-10-17T01:33:07.947Z,13.17
2022-10-17T01:36:13.058Z,13.11
2022-10-17T01:39:24.991Z,13.18
2022-10-17T01:42:34.010Z,13.11
2022-10-17T01:45:42.239Z,13.03
2022-10-17T01:48:46.364Z,12.93
2022-10-17T01:51:52.468Z,12.95
2022-10-17T01:54:57.900Z,12.74
2022-10-17T01:58:05.647Z,12.78
2022-10-17T02:01:12.017Z,12.74
2022-10-17T02:04:15.503Z,12.77
2022-10-17T02:07:17.582Z,12.73
2022-10-17T02:10:25.865Z,12.74
2022-10-17T02:13:40.327Z,12.51
2022-10-17T02:16:49.978Z,12.42
2022-10-17T02:20:06.738Z,12.32
2022-10-17T02:23:15.499Z,12.31
2022-10-17T02:26:21.690Z,12.37
2022-10-17T02:29:29.523Z,12.38
2022-10-17T02:32:37.105Z,12.30
2022-10-17T02:35:43.539Z,12.25
2022-10-17T02:38:46.498Z,12.11
2022-10-17T02:41:50.960Z,12.12
2022-10-17T02:44:55.073Z,12.05
2022-10-17T02:48:02.386Z,12.07
2022-10-17T02:51:15.933Z,12.03
2022-10-17T02:54:22.260Z,12.05
2022-10-17T02:57:30.649Z,12.05
2022-10-17T03:00:33.273Z,12.03
2022-10-17T03:03:35.189Z,11.99
2022-10-17T03:06:39.623Z,11.77
2022-10-17T03:09:41.605Z,11.79
2022-10-17T03:12:43.480Z,11.85
2022-10-17T03:15:45.439Z,11.85
2022-10-17T03:18:50.050Z,11.81
2022-10-17T03:21:53.668Z,11.82
2022-10-17T03:24:55.942Z,11.81
2022-10-17T03:27:59.049Z,11.81
2022-10-17T03:31:07.185Z,11.89
2022-10-17T03:34:09.113Z,11.87
2022-10-17T03:37:12.397Z,11.81
2022-10-17T03:40:14.675Z,11.83
2022-10-17T03:43:16.525Z,11.84
2022-10-17T03:49:25.332Z,11.82
2022-10-17T03:52:28.708Z,11.87
2022-10-17T03:55:30.629Z,11.83
2022-10-17T03:58:32.604Z,11.84
2022-10-17T04:01:34.737Z,11.81
2022-10-17T04:04:36.853Z,11.80
2022-10-17T04:07:40.170Z,11.83
2022-10-17T04:10:42.074Z,11.82
2022-10-17T04:13:44.386Z,11.77
2022-10-17T04:16:46.428Z,11.67
2022-10-17T04:19:49.343Z,11.60
2022-10-17T04:22:52.679Z,11.56
2022-10-17T04:25:56.573Z,11.50
2022-10-17T04:28:58.591Z,11.44
2022-10-17T04:32:00.503Z,11.32
2022-10-17T04:35:02.810Z,11.40
2022-10-17T04:38:06.399Z,11.33
2022-10-17T04:41:11.585Z,11.06
2022-10-17T04:44:13.709Z,11.03
2022-10-17T04:47:15.573Z,11.03
2022-10-17T04:50:18.015Z,10.93
2022-10-17T04:53:21.460Z,10.93
2022-10-17T04:56:24.850Z,10.97
2022-10-17T04:59:28.612Z,10.95
2022-10-17T05:02:30.777Z,10.94
2022-10-17T05:05:33.010Z,10.93
2022-10-17T05:08:37.140Z,10.89
2022-10-17T05:11:39.095Z,10.96
2022-10-17T05:14:41.003Z,10.99
2022-10-17T05:17:43.666Z,11.01
2022-10-17T05:20:45.559Z,11.03
2022-10-17T05:23:49.439Z,11.02
2022-10-17T05:26:51.330Z,11.06
2022-10-17T05:29:53.235Z,11.13
2022-10-17T05:32:55.301Z,11.21
2022-10-17T05:35:57.245Z,11.19
2022-10-17T05:39:00.767Z,11.09
2022-10-17T05:42:02.911Z,11.13
2022-10-17T05:45:05.898Z,11.10
2022-10-17T05:48:08.161Z,11.07
2022-10-17T05:51:10.506Z,11.13
2022-10-17T05:54:13.823Z,11.14
2022-10-17T05:57:15.725Z,11.22
2022-10-17T06:00:17.788Z,11.26
2022-10-17T06:03:19.701Z,11.22
2022-10-17T06:06:21.671Z,11.29
2022-10-17T06:09:25.033Z,11.30
2022-10-17T06:12:27.234Z,11.14
2022-10-17T06:15:29.437Z,11.20
2022-10-17T06:18:31.588Z,11.18
2022-10-17T06:21:33.547Z,11.20
2022-10-17T06:24:36.968Z,11.24
2022-10-17T06:27:38.924Z,11.28
2022-10-17T06:30:41.508Z,11.31
2022-10-17T06:33:43.628Z,11.36
2022-10-17T06:36:45.601Z,11.41
2022-10-17T06:39:48.949Z,11.38
2022-10-17T06:42:51.111Z,11.38
2022-10-17T06:45:53.083Z,11.23
2022-10-17T06:48:55.022Z,11.26
2022-10-17T06:51:57.295Z,11.25
2022-10-17T06:55:00.771Z,11.33
2022-10-17T06:58:02.921Z,11.32
2022-10-17T07:04:08.812Z,11.31
2022-10-17T07:07:10.809Z,11.34
2022-10-17T07:10:14.313Z,11.33
2022-10-17T07:13:16.591Z,11.47
2022-10-17T07:16:18.553Z,11.48
2022-10-17T07:19:20.828Z,11.58
2022-10-17T07:22:22.930Z,11.50
2022-10-17T07:25:26.246Z,11.55
2022-10-17T07:28:28.616Z,11.65
2022-10-17T07:31:30.625Z,11.65
2022-10-17T07:34:33.698Z,11.70
2022-10-17T07:37:36.016Z,11.68
2022-10-17T07:40:39.645Z,11.70
2022-10-17T07:43:41.584Z,11.71
2022-10-17T07:46:43.614Z,11.58
2022-10-17T07:49:45.547Z,11.62
2022-10-17T07:52:47.853Z,11.78
2022-10-17T07:55:51.162Z,11.80
2022-10-17T07:58:53.309Z,11.80
2022-10-17T08:01:56.394Z,11.81
2022-10-17T08:04:58.299Z,11.89
2022-10-17T08:08:00.601Z,11.94
2022-10-17T08:11:06.405Z,12.00
2022-10-17T08:14:08.388Z,11.98
2022-10-17T08:17:10.437Z,11.93
2022-10-17T08:20:12.865Z,12.02
2022-10-17T08:23:15.178Z,12.08
2022-10-17T08:26:19.455Z,12.14
2022-10-17T08:29:21.372Z,12.10
2022-10-17T08:32:24.799Z,12.02
2022-10-17T08:35:26.786Z,12.03
2022-10-17T08:38:32.001Z,11.98
2022-10-17T08:41:50.333Z,12.09
2022-10-17T08:45:00.466Z,12.18
2022-10-17T08:48:05.633Z,12.19
2022-10-17T08:51:13.909Z,12.26
2022-10-17T08:54:20.847Z,12.24
2022-10-17T08:57:24.130Z,12.41
2022-10-17T09:00:29.629Z,12.41
2022-10-17T09:03:45.707Z,12.41
2022-10-17T09:06:55.517Z,12.53
2022-10-17T09:10:03.654Z,12.58
2022-10-17T09:13:19.582Z,12.61
2022-10-17T09:16:39.476Z,12.68
2022-10-17T09:19:44.853Z,12.70
2022-10-17T09:22:52.700Z,12.71
2022-10-17T09:25:56.035Z,12.63
2022-10-17T09:29:01.091Z,12.45
2022-10-17T09:32:11.475Z,12.55
2022-10-17T09:35:14.992Z,12.68
2022-10-17T09:38:19.151Z,12.54
2022-10-17T09:41:44.118Z,12.49
2022-10-17T09:44:53.007Z,12.50
2022-10-17T09:48:01.876Z,12.68
2022-10-17T09:51:25.154Z,12.73
2022-10-17T09:54:36.345Z,12.76
2022-10-17T09:57:53.339Z,12.90
2022-10-17T10:01:19.642Z,13.02
2022-10-17T10:04:27.546Z,13.20
2022-10-17T10:07:34.745Z,13.06
2022-10-17T10:10:36.728Z,13.13
2022-10-17T10:13:38.686Z,13.07
2022-10-17T10:16:45.297Z,13.07
2022-10-17T10:19:51.251Z,13.18
2022-10-17T10:23:14.734Z,13.22
2022-10-17T10:26:25.731Z,13.31
2022-10-17T10:29:31.536Z,13.23
2022-10-17T10:32:37.044Z,13.30
2022-10-17T10:35:39.393Z,13.40
2022-10-17T10:38:41.565Z,13.48
2022-10-17T10:41:48.655Z,13.36
2022-10-17T10:44:54.040Z,13.46
2022-10-17T10:47:58.956Z,13.55
2022-10-17T10:51:04.586Z,13.65
2022-10-17T10:54:13.133Z,13.75
2022-10-17T10:57:21.212Z,13.78
2022-10-17T11:00:25.905Z,13.86
2022-10-17T11:03:34.345Z,13.90
2022-10-17T11:06:39.891Z,13.91
2022-10-17T11:09:48.824Z,13.87
2022-10-17T11:12:57.780Z,14.04
2022-10-17T11:16:04.858Z,14.11
2022-10-17T11:19:16.697Z,14.14
2022-10-17T11:22:28.922Z,14.28
2022-10-17T11:25:34.358Z,14.30
2022-10-17T11:28:36.826Z,14.31
2022-10-17T11:31:43.227Z,14.38
2022-10-17T11:34:50.107Z,14.56
2022-10-17T11:37:58.409Z,14.71
2022-10-17T11:41:00.698Z,14.77
2022-10-17T11:44:11.765Z,14.79
2022-10-17T11:47:26.965Z,14.86
2022-10-17T11:54:00.511Z,15.07
2022-10-17T11:57:28.542Z,15.15
2022-10-17T12:00:42.774Z,15.17
2022-10-17T12:03:59.130Z,15.30
2022-10-17T12:07:14.413Z,15.33
2022-10-17T12:10:29.107Z,15.38
2022-10-17T12:13:52.492Z,15.44
2022-10-17T12:16:54.578Z,15.43
2022-10-17T12:20:28.795Z,15.56
2022-10-17T12:23:32.737Z,15.50
2022-10-17T12:26:34.719Z,15.46
2022-10-17T12:29:36.876Z,15.56
2022-10-17T12:33:05.269Z,15.69
2022-10-17T12:36:44.817Z,15.78
2022-10-17T12:39:48.215Z,15.89
2022-10-17T12:42:50.479Z,15.96
2022-10-17T12:45:54.182Z,15.92
2022-10-17T12:49:03.234Z,15.94
2022-10-17T12:52:24.450Z,15.97
2022-10-17T12:55:29.423Z,16.12
2022-10-17T12:58:31.741Z,16.15
2022-10-17T13:01:36.913Z,16.34
2022-10-17T13:04:39.231Z,16.34
2022-10-17T13:07:44.144Z,16.31
2022-10-17T13:10:52.427Z,16.38
2022-10-17T13:13:57.915Z,16.43
2022-10-17T13:17:01.699Z,16.42
2022-10-17T13:20:27.676Z,16.49
2022-10-17T13:23:34.883Z,16.57
2022-10-17T13:26:38.218Z,16.61
2022-10-17T13:29:44.784Z,16.73
2022-10-17T13:32:46.758Z,16.74
2022-10-17T13:36:00.005Z,16.69
2022-10-17T13:39:12.037Z,16.74
2022-10-17T13:42:24.239Z,16.75
2022-10-17T13:45:30.237Z,16.81
2022-10-17T13:48:34.917Z,16.89
2022-10-17T13:51:36.910Z,16.90
2022-10-17T13:54:40.750Z,16.96
2022-10-17T13:57:44.376Z,16.98
2022-10-17T14:00:48.020Z,16.98
2022-10-17T14:04:02.160Z,17.01
2022-10-17T14:07:25.179Z,17.03
2022-10-17T14:10:31.756Z,17.11
2022-10-17T14:13:35.263Z,17.14
2022-10-17T14:16:40.594Z,17.24
2022-10-17T14:19:46.004Z,17.23
2022-10-17T14:23:17.508Z,17.31
2022-10-17T14:26:16.495Z,17.35
2022-10-17T14:29:24.802Z,17.36
2022-10-17T14:32:28.134Z,17.29
2022-10-17T14:35:41.491Z,17.36
2022-10-17T14:38:49.829Z,17.32
2022-10-17T14:41:52.705Z,17.24
2022-10-17T14:45:05.307Z,17.27
2022-10-17T14:48:12.386Z,17.28
2022-10-17T14:51:16.236Z,17.40
2022-10-17T14:54:22.546Z,17.46
2022-10-17T14:57:40.151Z,17.51
2022-10-17T15:00:43.491Z,17.53
2022-10-17T15:03:46.594Z,17.60
2022-10-17T15:06:54.869Z,17.55
2022-10-17T15:09:56.860Z,17.54
2022-10-17T15:13:16.137Z,17.64
2022-10-17T15:16:25.571Z,17.75
2022-10-17T15:19:27.549Z,17.85
2022-10-17T15:22:29.976Z,17.89
2022-10-17T15:25:32.284Z,17.91
2022-10-17T15:28:34.559Z,17.95
2022-10-17T15:31:37.985Z,17.98
2022-10-17T15:34:40.408Z,18.11
2022-10-17T15:37:42.784Z,18.19
2022-10-17T15:40:44.711Z,18.23
2022-10-17T15:43:47.343Z,18.24
2022-10-17T15:46:50.722Z,18.24
2022-10-17T15:49:52.923Z,18.12
2022-10-17T15:52:54.839Z,18.00
2022-10-17T15:55:56.750Z,17.85
2022-10-17T15:58:58.850Z,17.78
2022-10-17T16:02:02.181Z,17.71
2022-10-17T16:05:13.486Z,17.62
2022-10-17T16:08:15.431Z,17.58
2022-10-17T16:11:22.663Z,17.55
2022-10-17T16:14:24.608Z,17.48
2022-10-17T16:17:28.046Z,17.38
2022-10-17T16:20:30.539Z,17.34
2022-10-17T16:23:32.428Z,17.26
2022-10-17T16:26:34.374Z,17.17
2022-10-17T16:29:36.260Z,17.15
2022-10-17T16:32:39.790Z,17.09
2022-10-17T16:35:41.966Z,16.96
2022-10-17T16:38:44.148Z,16.92
2022-10-17T16:41:46.066Z,16.86
2022-10-17T16:44:48.579Z,16.69
2022-10-17T16:47:51.890Z,16.57
2022-10-17T16:50:54.289Z,16.51
2022-10-17T16:53:56.409Z,16.47
2022-10-17T16:56:58.677Z,16.39
2022-10-17T17:00:00.631Z,16.30
2022-10-17T17:03:04.909Z,16.26
2022-10-17T17:06:08.092Z,16.15
2022-10-17T17:09:10.439Z,16.07
2022-10-17T17:12:16.415Z,15.92
2022-10-17T17:15:19.074Z,15.66
2022-10-17T17:18:24.713Z,15.56
2022-10-17T17:21:27.288Z,15.22
2022-10-17T17:24:29.227Z,15.20
2022-10-17T17:27:31.492Z,15.05
2022-10-17T17:30:35.018Z,15.08
2022-10-17T17:33:42.570Z,14.98
2022-10-17T17:36:45.442Z,14.95
2022-10-17T17:39:48.954Z,14.77
2022-10-17T17:42:51.871Z,14.75
2022-10-17T17:45:54.217Z,14.80
2022-10-17T17:48:58.209Z,14.84
2022-10-17T17:55:10.007Z,14.93
2022-10-17T17:58:12.578Z,14.91
2022-10-17T18:01:17.642Z,14.91
2022-10-17T18:04:21.695Z,14.87
2022-10-17T18:07:24.306Z,14.80
2022-10-17T18:10:29.894Z,14.79
2022-10-17T18:13:33.650Z,14.75
2022-10-17T18:16:37.780Z,14.74
2022-10-17T18:19:42.363Z,14.66
2022-10-17T18:22:45.707Z,14.67
2022-10-17T18:25:54.783Z,14.69
2022-10-17T18:28:57.900Z,14.59
2022-10-17T18:32:00.698Z,14.54
2022-10-17T18:35:04.934Z,14.54
2022-10-17T18:38:08.399Z,14.42
2022-10-17T18:41:13.083Z,14.09
2022-10-17T18:44:16.811Z,14.03
2022-10-17T18:47:19.408Z,14.03
2022-10-17T18:50:24.206Z,13.94
2022-10-17T18:53:26.911Z,13.41
2022-10-17T18:56:30.886Z,13.21
2022-10-17T18:59:33.965Z,13.20
2022-10-17T19:02:38.067Z,13.02
2022-10-17T19:05:43.050Z,12.74
2022-10-17T19:08:46.410Z,12.47
2022-10-17T19:11:48.746Z,12.46
2022-10-17T19:14:50.943Z,12.39
2022-10-17T19:17:53.744Z,12.41
2022-10-17T19:21:02.751Z,12.34
2022-10-17T19:24:07.109Z,12.34
2022-10-17T19:27:09.094Z,12.53
2022-10-17T19:30:12.411Z,12.55
2022-10-17T19:33:15.849Z,12.65
2022-10-17T19:36:21.711Z,12.62
2022-10-17T19:39:24.617Z,12.91
2022-10-17T19:42:27.517Z,13.04
2022-10-17T19:45:30.073Z,13.11
2022-10-17T19:48:33.515Z,13.21
2022-10-17T19:51:37.425Z,13.28
2022-10-17T19:54:39.794Z,13.32
2022-10-17T19:57:42.699Z,13.32
2022-10-17T20:00:48.366Z,13.35
2022-10-17T20:03:50.676Z,13.14
2022-10-17T20:06:55.619Z,13.15
2022-10-17T20:09:58.099Z,13.19
2022-10-17T20:13:00.614Z,13.18
2022-10-17T20:16:03.485Z,13.16
2022-10-17T20:19:07.443Z,13.16
2022-10-17T20:22:10.714Z,13.09
2022-10-17T20:25:12.671Z,13.01
2022-10-17T20:28:15.160Z,13.04
2022-10-17T20:31:17.809Z,12.65
2022-10-17T20:34:20.000Z,12.48
2022-10-17T20:37:23.585Z,12.40
2022-10-17T20:40:40.989Z,12.49
2022-10-17T20:43:42.897Z,12.53
2022-10-17T20:46:57.659Z,12.61
2022-10-17T20:50:04.083Z,12.57
2022-10-17T20:53:31.813Z,12.41
2022-10-17T20:56:31.937Z,12.35
2022-10-17T20:59:34.591Z,12.40
2022-10-17T21:02:36.753Z,12.56
2022-10-17T21:05:39.356Z,12.64
2022-10-17T21:08:43.128Z,12.72
2022-10-17T21:11:45.114Z,12.77
2022-10-17T21:14:47.077Z,12.77
2022-10-17T21:17:48.952Z,12.83
2022-10-17T21:20:51.106Z,12.86
2022-10-17T21:23:56.033Z,12.92
2022-10-17T21:26:58.020Z,12.97
2022-10-17T21:29:59.956Z,13.02
2022-10-17T21:33:01.867Z,12.98
2022-10-17T21:36:03.944Z,12.88
2022-10-17T21:42:14.526Z,12.90
2022-10-17T21:45:25.306Z,12.84
2022-10-17T21:48:27.648Z,12.81
2022-10-17T21:51:29.748Z,12.81
2022-10-17T21:54:33.179Z,12.80
2022-10-17T21:57:35.120Z,12.80
2022-10-17T22:00:37.050Z,12.78
2022-10-17T22:03:44.083Z,12.76
2022-10-17T22:06:49.761Z,12.76
2022-10-17T22:09:53.227Z,12.74
2022-10-17T22:12:55.112Z,12.74
2022-10-17T22:15:59.390Z,12.73
2022-10-17T22:19:06.207Z,12.73
2022-10-17T22:22:09.104Z,12.68
2022-10-17T22:25:12.484Z,12.64
2022-10-17T22:28:14.405Z,12.63
2022-10-17T22:31:16.939Z,12.61
2022-10-17T22:34:19.417Z,12.52
2022-10-17T22:37:21.340Z,12.26
2022-10-17T22:40:24.994Z,12.23
2022-10-17T22:43:27.045Z,11.83
2022-10-17T22:46:29.088Z,11.48
2022-10-17T22:49:32.819Z,11.48
2022-10-17T22:52:35.119Z,11.61
2022-10-17T22:55:38.469Z,11.61
2022-10-17T22:58:40.810Z,11.56
2022-10-17T23:01:42.762Z,11.74
2022-10-17T23:04:44.795Z,11.56
2022-10-17T23:07:46.688Z,11.25
2022-10-17T23:10:50.014Z,11.30
2022-10-17T23:13:51.895Z,11.22
2022-10-17T23:16:54.085Z,11.25
2022-10-17T23:19:57.708Z,11.33
2022-10-17T23:22:59.932Z,11.29
2022-10-17T23:26:08.990Z,10.96
2022-10-17T23:29:10.983Z,10.91
2022-10-17T23:32:12.910Z,10.86
2022-10-17T23:35:15.204Z,11.06
2022-10-17T23:38:17.114Z,11.27
2022-10-17T23:41:20.442Z,11.33
2022-10-17T23:44:22.352Z,11.38
2022-10-17T23:47:24.454Z,11.51
2022-10-17T23:50:26.555Z,11.42
2022-10-17T23:53:28.432Z,11.49
2022-10-17T23:56:31.736Z,11.41
2022-10-17T23:59:33.687Z,11.02
